sensor_id;sensor_type;location;lat;lon;timestamp;temperature;humidity
6843;DHT22;3460;52.028;8.916;2023-11-19T03:26:53;10.60;99.90
6843;DHT22;3460;52.028;8.916;2023-11-19T03:29:20;10.80;99.90
6843;DHT22;3460;52.028;8.916;2023-11-19T03:31:46;10.80;99.90
6843;DHT22;3460;52.028;8.916;2023-11-19T03:34:13;10.80;99.90
6843;DHT22;3460;52.028;8.916;2023-11-19T03:36:41;10.80;99.90
6843;DHT22;3460;52.028;8.916;2023-11-19T03:39:07;10.90;99.90
6843;DHT22;3460;52.028;8.916;2023-11-19T03:41:34;10.90;99.90
6843;DHT22;3460;52.028;8.916;2023-11-19T03:44:02;10.90;99.90
6843;DHT22;3460;52.028;8.916;2023-11-19T03:46:29;11.00;99.90
6843;DHT22;3460;52.028;8.916;2023-11-19T03:48:56;11.00;99.90
6843;DHT22;3460;52.028;8.916;2023-11-19T03:51:23;10.90;99.90
6843;DHT22;3460;52.028;8.916;2023-11-19T03:53:50;10.90;99.90
6843;DHT22;3460;52.028;8.916;2023-11-19T03:56:16;10.90;99.90
6843;DHT22;3460;52.028;8.916;2023-11-19T03:58:43;11.00;99.90
6843;DHT22;3460;52.028;8.916;2023-11-19T04:01:12;11.10;99.90
6843;DHT22;3460;52.028;8.916;2023-11-19T04:03:39;11.10;99.90
6843;DHT22;3460;52.028;8.916;2023-11-19T04:06:07;11.00;99.90
6843;DHT22;3460;52.028;8.916;2023-11-19T04:08:34;11.10;99.90
6843;DHT22;3460;52.028;8.916;2023-11-19T04:11:00;11.10;99.90
6843;DHT22;3460;52.028;8.916;2023-11-19T04:13:27;11.10;99.90
6843;DHT22;3460;52.028;8.916;2023-11-19T04:15:54;11.10;99.90
6843;DHT22;3460;52.028;8.916;2023-11-19T04:18:23;11.10;99.90
6843;DHT22;3460;52.028;8.916;2023-11-19T04:20:49;11.20;99.90
6843;DHT22;3460;52.028;8.916;2023-11-19T04:23:16;11.20;99.90
6843;DHT22;3460;52.028;8.916;2023-11-19T04:25:43;11.30;99.90
6843;DHT22;3460;52.028;8.916;2023-11-19T04:28:10;11.30;99.90
6843;DHT22;3460;52.028;8.916;2023-11-19T04:30:36;11.30;99.90
6843;DHT22;3460;52.028;8.916;2023-11-19T04:33:04;11.30;99.90
6843;DHT22;3460;52.028;8.916;2023-11-19T04:35:32;11.30;99.90
6843;DHT22;3460;52.028;8.916;2023-11-19T04:37:59;11.40;99.90
6843;DHT22;3460;52.028;8.916;2023-11-19T04:40:26;11.40;99.90
6843;DHT22;3460;52.028;8.916;2023-11-19T04:42:53;11.40;99.90
6843;DHT22;3460;52.028;8.916;2023-11-19T04:45:19;11.40;99.90
6843;DHT22;3460;52.028;8.916;2023-11-19T04:47:46;11.40;99.90
6843;DHT22;3460;52.028;8.916;2023-11-19T04:50:13;11.50;99.90
6843;DHT22;3460;52.028;8.916;2023-11-19T04:52:41;11.50;99.90
6843;DHT22;3460;52.028;8.916;2023-11-19T04:55:10;11.50;99.90
6843;DHT22;3460;52.028;8.916;2023-11-19T04:57:38;11.50;99.90
6843;DHT22;3460;52.028;8.916;2023-11-19T05:00:05;11.50;99.90
6843;DHT22;3460;52.028;8.916;2023-11-19T05:02:33;11.60;99.90
6843;DHT22;3460;52.028;8.916;2023-11-19T05:05:00;11.60;99.90
6843;DHT22;3460;52.028;8.916;2023-11-19T05:07:26;11.60;99.90
6843;DHT22;3460;52.028;8.916;2023-11-19T05:09:54;11.60;99.90
6843;DHT22;3460;52.028;8.916;2023-11-19T05:12:22;11.60;99.90
6843;DHT22;3460;52.028;8.916;2023-11-19T05:14:49;11.60;99.90
6843;DHT22;3460;52.028;8.916;2023-11-19T05:17:16;11.50;99.90
6843;DHT22;3460;52.028;8.916;2023-11-19T05:19:44;11.50;99.90
6843;DHT22;3460;52.028;8.916;2023-11-19T05:22:11;11.40;99.90
6843;DHT22;3460;52.028;8.916;2023-11-19T05:24:38;11.40;99.90
6843;DHT22;3460;52.028;8.916;2023-11-19T05:27:07;11.30;99.90
6843;DHT22;3460;52.028;8.916;2023-11-19T05:29:34;11.30;99.90
6843;DHT22;3460;52.028;8.916;2023-11-19T05:32:01;11.40;99.90
6843;DHT22;3460;52.028;8.916;2023-11-19T05:34:28;11.30;99.90
6843;DHT22;3460;52.028;8.916;2023-11-19T05:36:55;11.30;99.90
6843;DHT22;3460;52.028;8.916;2023-11-19T05:39:22;11.30;99.90
6843;DHT22;3460;52.028;8.916;2023-11-19T05:41:50;11.40;99.90
6843;DHT22;3460;52.028;8.916;2023-11-19T05:44:18;11.30;99.90
6843;DHT22;3460;52.028;8.916;2023-11-19T05:46:45;11.30;99.90
6843;DHT22;3460;52.028;8.916;2023-11-19T05:49:12;11.30;99.90
6843;DHT22;3460;52.028;8.916;2023-11-19T05:51:39;11.30;99.90
6843;DHT22;3460;52.028;8.916;2023-11-19T05:54:07;11.30;99.90
6843;DHT22;3460;52.028;8.916;2023-11-19T05:56:33;11.30;99.90
6843;DHT22;3460;52.028;8.916;2023-11-19T05:59:01;11.30;99.90
6843;DHT22;3460;52.028;8.916;2023-11-19T06:01:34;11.30;99.90
6843;DHT22;3460;52.028;8.916;2023-11-19T06:04:00;11.30;99.90
6843;DHT22;3460;52.028;8.916;2023-11-19T06:06:28;11.30;99.90
6843;DHT22;3460;52.028;8.916;2023-11-19T06:08:54;11.20;99.90
6843;DHT22;3460;52.028;8.916;2023-11-19T06:11:21;11.20;99.90
6843;DHT22;3460;52.028;8.916;2023-11-19T06:13:48;11.10;99.90
6843;DHT22;3460;52.028;8.916;2023-11-19T06:16:16;11.10;99.90
6843;DHT22;3460;52.028;8.916;2023-11-19T06:18:44;11.10;99.90
6843;DHT22;3460;52.028;8.916;2023-11-19T06:21:11;11.10;99.90
6843;DHT22;3460;52.028;8.916;2023-11-19T06:23:38;11.10;99.90
6843;DHT22;3460;52.028;8.916;2023-11-19T06:26:05;11.10;99.90
6843;DHT22;3460;52.028;8.916;2023-11-19T06:28:32;11.20;99.90
6843;DHT22;3460;52.028;8.916;2023-11-19T06:30:58;11.20;99.90
6843;DHT22;3460;52.028;8.916;2023-11-19T06:33:25;11.20;99.90
6843;DHT22;3460;52.028;8.916;2023-11-19T06:35:54;11.10;99.90
6843;DHT22;3460;52.028;8.916;2023-11-19T06:38:21;11.10;99.90
6843;DHT22;3460;52.028;8.916;2023-11-19T06:40:47;11.20;99.90
6843;DHT22;3460;52.028;8.916;2023-11-19T06:43:14;11.10;99.90
6843;DHT22;3460;52.028;8.916;2023-11-19T06:45:41;11.20;99.90
6843;DHT22;3460;52.028;8.916;2023-11-19T06:48:08;11.30;99.90
6843;DHT22;3460;52.028;8.916;2023-11-19T06:50:35;11.20;99.90
6843;DHT22;3460;52.028;8.916;2023-11-19T06:53:03;11.20;99.90
6843;DHT22;3460;52.028;8.916;2023-11-19T06:55:32;11.20;99.90
6843;DHT22;3460;52.028;8.916;2023-11-19T06:58:00;11.20;99.90
6843;DHT22;3460;52.028;8.916;2023-11-19T07:00:27;11.10;99.90
6843;DHT22;3460;52.028;8.916;2023-11-19T07:02:54;11.10;99.90
6843;DHT22;3460;52.028;8.916;2023-11-19T07:05:21;11.10;99.90
6843;DHT22;3460;52.028;8.916;2023-11-19T07:07:49;11.10;99.90
6843;DHT22;3460;52.028;8.916;2023-11-19T07:10:17;11.00;99.90
6843;DHT22;3460;52.028;8.916;2023-11-19T07:12:44;11.00;99.90
6843;DHT22;3460;52.028;8.916;2023-11-19T07:15:11;10.90;99.90
6843;DHT22;3460;52.028;8.916;2023-11-19T07:17:39;11.00;99.90
6843;DHT22;3460;52.028;8.916;2023-11-19T07:20:07;11.00;99.90
6843;DHT22;3460;52.028;8.916;2023-11-19T07:22:34;11.00;99.90
6843;DHT22;3460;52.028;8.916;2023-11-19T07:25:01;11.10;99.90
6843;DHT22;3460;52.028;8.916;2023-11-19T07:27:29;11.00;99.90
6843;DHT22;3460;52.028;8.916;2023-11-19T07:29:56;11.00;99.90
6843;DHT22;3460;52.028;8.916;2023-11-19T07:32:23;11.00;99.90
6843;DHT22;3460;52.028;8.916;2023-11-19T07:34:50;11.10;99.90
6843;DHT22;3460;52.028;8.916;2023-11-19T07:37:16;11.00;99.90
6843;DHT22;3460;52.028;8.916;2023-11-19T07:39:43;11.00;99.90
6843;DHT22;3460;52.028;8.916;2023-11-19T07:42:10;10.90;99.90
6843;DHT22;3460;52.028;8.916;2023-11-19T07:44:38;11.00;99.90
6843;DHT22;3460;52.028;8.916;2023-11-19T07:47:05;11.00;99.90
6843;DHT22;3460;52.028;8.916;2023-11-19T07:49:32;11.00;99.90
6843;DHT22;3460;52.028;8.916;2023-11-19T07:51:59;11.00;99.90
6843;DHT22;3460;52.028;8.916;2023-11-19T07:54:26;11.10;99.90
6843;DHT22;3460;52.028;8.916;2023-11-19T07:56:54;11.20;99.90
6843;DHT22;3460;52.028;8.916;2023-11-19T07:59:21;11.20;99.90
6843;DHT22;3460;52.028;8.916;2023-11-19T08:01:49;11.10;99.90
6843;DHT22;3460;52.028;8.916;2023-11-19T08:04:16;11.20;99.90
6843;DHT22;3460;52.028;8.916;2023-11-19T08:06:43;11.10;99.90
6843;DHT22;3460;52.028;8.916;2023-11-19T08:09:11;11.10;99.90
6843;DHT22;3460;52.028;8.916;2023-11-19T08:11:39;11.10;99.90
6843;DHT22;3460;52.028;8.916;2023-11-19T08:14:06;11.00;99.90
6843;DHT22;3460;52.028;8.916;2023-11-19T08:16:34;11.00;99.90
6843;DHT22;3460;52.028;8.916;2023-11-19T08:19:03;11.10;99.90
6843;DHT22;3460;52.028;8.916;2023-11-19T08:21:30;11.10;99.90
6843;DHT22;3460;52.028;8.916;2023-11-19T08:23:57;11.10;99.90
6843;DHT22;3460;52.028;8.916;2023-11-19T08:26:23;11.10;99.90
6843;DHT22;3460;52.028;8.916;2023-11-19T08:28:50;11.10;99.90
6843;DHT22;3460;52.028;8.916;2023-11-19T08:31:17;11.20;99.90
6843;DHT22;3460;52.028;8.916;2023-11-19T08:33:44;11.20;99.90
6843;DHT22;3460;52.028;8.916;2023-11-19T08:36:16;11.30;99.90
6843;DHT22;3460;52.028;8.916;2023-11-19T08:38:43;11.30;99.90
6843;DHT22;3460;52.028;8.916;2023-11-19T08:41:10;11.30;99.90
6843;DHT22;3460;52.028;8.916;2023-11-19T08:43:37;11.30;99.90
6843;DHT22;3460;52.028;8.916;2023-11-19T08:46:09;11.30;99.90
6843;DHT22;3460;52.028;8.916;2023-11-19T08:48:36;11.30;99.90
6843;DHT22;3460;52.028;8.916;2023-11-19T08:51:03;11.40;99.90
6843;DHT22;3460;52.028;8.916;2023-11-19T08:53:32;11.30;99.90
6843;DHT22;3460;52.028;8.916;2023-11-19T08:55:58;11.50;99.90
6843;DHT22;3460;52.028;8.916;2023-11-19T08:58:26;11.60;99.90
6843;DHT22;3460;52.028;8.916;2023-11-19T09:00:52;11.60;99.90
6843;DHT22;3460;52.028;8.916;2023-11-19T09:03:19;11.60;99.90
6843;DHT22;3460;52.028;8.916;2023-11-19T09:05:47;11.60;99.90
6843;DHT22;3460;52.028;8.916;2023-11-19T09:08:13;11.60;99.90
6843;DHT22;3460;52.028;8.916;2023-11-19T09:10:42;11.60;99.90
6843;DHT22;3460;52.028;8.916;2023-11-19T09:13:08;11.50;99.90
6843;DHT22;3460;52.028;8.916;2023-11-19T09:15:35;11.40;99.90
6843;DHT22;3460;52.028;8.916;2023-11-19T09:18:02;11.50;99.90
6843;DHT22;3460;52.028;8.916;2023-11-19T09:20:30;11.40;99.90
6843;DHT22;3460;52.028;8.916;2023-11-19T09:23:03;11.50;99.90
6843;DHT22;3460;52.028;8.916;2023-11-19T09:25:30;11.50;99.90
6843;DHT22;3460;52.028;8.916;2023-11-19T09:27:58;11.60;99.90
6843;DHT22;3460;52.028;8.916;2023-11-19T09:30:25;11.60;99.90
6843;DHT22;3460;52.028;8.916;2023-11-19T09:32:52;11.60;99.90
6843;DHT22;3460;52.028;8.916;2023-11-19T09:35:19;11.60;99.90
6843;DHT22;3460;52.028;8.916;2023-11-19T09:37:46;11.70;99.90
6843;DHT22;3460;52.028;8.916;2023-11-19T09:40:13;11.70;99.90
6843;DHT22;3460;52.028;8.916;2023-11-19T09:42:44;11.70;99.90
6843;DHT22;3460;52.028;8.916;2023-11-19T09:45:15;11.70;99.90
6843;DHT22;3460;52.028;8.916;2023-11-19T09:47:44;11.60;99.90
6843;DHT22;3460;52.028;8.916;2023-11-19T09:50:15;11.60;99.90
6843;DHT22;3460;52.028;8.916;2023-11-19T09:52:42;11.60;99.90
6843;DHT22;3460;52.028;8.916;2023-11-19T09:55:09;11.60;99.90
6843;DHT22;3460;52.028;8.916;2023-11-19T09:57:37;11.70;99.90
6843;DHT22;3460;52.028;8.916;2023-11-19T10:00:06;11.70;99.90
6843;DHT22;3460;52.028;8.916;2023-11-19T10:02:34;11.60;99.90
6843;DHT22;3460;52.028;8.916;2023-11-19T10:05:04;11.70;99.90
6843;DHT22;3460;52.028;8.916;2023-11-19T10:07:32;11.70;99.90
6843;DHT22;3460;52.028;8.916;2023-11-19T10:09:59;11.70;99.90
6843;DHT22;3460;52.028;8.916;2023-11-19T10:12:27;11.80;99.90
6843;DHT22;3460;52.028;8.916;2023-11-19T10:14:56;11.90;99.90
6843;DHT22;3460;52.028;8.916;2023-11-19T10:17:27;11.90;99.90
6843;DHT22;3460;52.028;8.916;2023-11-19T10:19:56;12.10;99.90
6843;DHT22;3460;52.028;8.916;2023-11-19T10:22:23;12.10;99.90
6843;DHT22;3460;52.028;8.916;2023-11-19T10:24:50;12.10;99.90
6843;DHT22;3460;52.028;8.916;2023-11-19T10:27:17;12.00;99.90
6843;DHT22;3460;52.028;8.916;2023-11-19T10:29:45;12.00;99.90
6843;DHT22;3460;52.028;8.916;2023-11-19T10:32:12;12.00;99.90
6843;DHT22;3460;52.028;8.916;2023-11-19T10:34:40;12.20;99.90
6843;DHT22;3460;52.028;8.916;2023-11-19T10:37:08;12.20;99.90
6843;DHT22;3460;52.028;8.916;2023-11-19T10:39:52;12.20;99.90
6843;DHT22;3460;52.028;8.916;2023-11-19T10:42:20;12.30;99.90
6843;DHT22;3460;52.028;8.916;2023-11-19T10:44:46;12.40;99.90
6843;DHT22;3460;52.028;8.916;2023-11-19T10:47:14;12.30;99.90
6843;DHT22;3460;52.028;8.916;2023-11-19T10:49:43;12.30;99.90
6843;DHT22;3460;52.028;8.916;2023-11-19T10:52:16;12.20;99.90
6843;DHT22;3460;52.028;8.916;2023-11-19T10:54:44;12.30;99.90
6843;DHT22;3460;52.028;8.916;2023-11-19T10:57:20;12.30;99.90
6843;DHT22;3460;52.028;8.916;2023-11-19T10:59:47;12.30;99.90
6843;DHT22;3460;52.028;8.916;2023-11-19T11:02:19;12.50;99.90
6843;DHT22;3460;52.028;8.916;2023-11-19T11:04:50;12.50;99.90
6843;DHT22;3460;52.028;8.916;2023-11-19T11:07:21;12.50;99.90
6843;DHT22;3460;52.028;8.916;2023-11-19T11:09:51;12.50;99.90
6843;DHT22;3460;52.028;8.916;2023-11-19T11:12:21;12.60;99.90
6843;DHT22;3460;52.028;8.916;2023-11-19T11:14:49;12.70;99.90
6843;DHT22;3460;52.028;8.916;2023-11-19T11:17:17;12.70;99.90
6843;DHT22;3460;52.028;8.916;2023-11-19T11:19:45;12.70;99.90
6843;DHT22;3460;52.028;8.916;2023-11-19T11:22:13;12.80;99.90
6843;DHT22;3460;52.028;8.916;2023-11-19T11:25:11;12.70;99.90
6843;DHT22;3460;52.028;8.916;2023-11-19T11:28:03;12.70;99.90
6843;DHT22;3460;52.028;8.916;2023-11-19T11:30:43;12.60;99.90
6843;DHT22;3460;52.028;8.916;2023-11-19T11:33:26;12.60;99.90
6843;DHT22;3460;52.028;8.916;2023-11-19T11:36:07;12.50;99.90
6843;DHT22;3460;52.028;8.916;2023-11-19T11:38:38;12.60;99.90
6843;DHT22;3460;52.028;8.916;2023-11-19T11:41:19;12.50;99.90
6843;DHT22;3460;52.028;8.916;2023-11-19T11:43:47;12.40;99.90
6843;DHT22;3460;52.028;8.916;2023-11-19T11:49:25;12.20;99.90
6843;DHT22;3460;52.028;8.916;2023-11-19T11:51:59;11.90;99.90
6843;DHT22;3460;52.028;8.916;2023-11-19T11:54:28;11.80;99.90
6843;DHT22;3460;52.028;8.916;2023-11-19T11:57:06;11.60;99.90
6843;DHT22;3460;52.028;8.916;2023-11-19T11:59:45;11.50;99.90
6843;DHT22;3460;52.028;8.916;2023-11-19T12:02:14;11.40;99.90
6843;DHT22;3460;52.028;8.916;2023-11-19T12:04:42;11.40;99.90
6843;DHT22;3460;52.028;8.916;2023-11-19T12:07:12;11.40;99.90
6843;DHT22;3460;52.028;8.916;2023-11-19T12:09:40;11.40;99.90
6843;DHT22;3460;52.028;8.916;2023-11-19T12:12:13;11.40;99.90
6843;DHT22;3460;52.028;8.916;2023-11-19T12:15:04;11.40;99.90
6843;DHT22;3460;52.028;8.916;2023-11-19T12:17:51;11.50;99.90
6843;DHT22;3460;52.028;8.916;2023-11-19T12:20:19;11.50;99.90
6843;DHT22;3460;52.028;8.916;2023-11-19T12:22:47;11.50;99.90
6843;DHT22;3460;52.028;8.916;2023-11-19T12:25:15;11.50;99.90
6843;DHT22;3460;52.028;8.916;2023-11-19T12:27:45;11.50;99.90
6843;DHT22;3460;52.028;8.916;2023-11-19T12:30:17;11.40;99.90
6843;DHT22;3460;52.028;8.916;2023-11-19T12:32:45;11.40;99.90
6843;DHT22;3460;52.028;8.916;2023-11-19T12:35:12;11.30;99.90
6843;DHT22;3460;52.028;8.916;2023-11-19T12:37:40;11.30;99.90
6843;DHT22;3460;52.028;8.916;2023-11-19T12:40:14;11.30;99.90
6843;DHT22;3460;52.028;8.916;2023-11-19T12:42:41;11.40;99.90
6843;DHT22;3460;52.028;8.916;2023-11-19T12:45:10;11.50;99.90
6843;DHT22;3460;52.028;8.916;2023-11-19T12:47:38;11.60;99.90
6843;DHT22;3460;52.028;8.916;2023-11-19T12:50:06;11.70;99.90
6843;DHT22;3460;52.028;8.916;2023-11-19T12:52:33;11.80;99.90
6843;DHT22;3460;52.028;8.916;2023-11-19T12:55:01;11.90;99.90
6843;DHT22;3460;52.028;8.916;2023-11-19T12:57:38;12.00;99.90
6843;DHT22;3460;52.028;8.916;2023-11-19T13:00:06;12.00;99.90
6843;DHT22;3460;52.028;8.916;2023-11-19T13:02:47;12.00;99.90
6843;DHT22;3460;52.028;8.916;2023-11-19T13:05:22;12.00;99.90
6843;DHT22;3460;52.028;8.916;2023-11-19T13:07:49;12.00;99.90
6843;DHT22;3460;52.028;8.916;2023-11-19T13:10:16;12.10;99.90
6843;DHT22;3460;52.028;8.916;2023-11-19T13:12:43;12.10;99.90
6843;DHT22;3460;52.028;8.916;2023-11-19T13:15:22;12.00;99.90
6843;DHT22;3460;52.028;8.916;2023-11-19T13:17:51;12.00;99.90
6843;DHT22;3460;52.028;8.916;2023-11-19T13:20:18;12.10;99.90
6843;DHT22;3460;52.028;8.916;2023-11-19T13:22:57;12.10;99.90
6843;DHT22;3460;52.028;8.916;2023-11-19T13:25:24;12.10;99.90
6843;DHT22;3460;52.028;8.916;2023-11-19T13:27:51;12.20;99.90
6843;DHT22;3460;52.028;8.916;2023-11-19T13:30:18;12.20;99.90
6843;DHT22;3460;52.028;8.916;2023-11-19T13:32:45;12.30;99.90
6843;DHT22;3460;52.028;8.916;2023-11-19T13:35:13;12.20;99.90
6843;DHT22;3460;52.028;8.916;2023-11-19T13:37:40;12.20;99.90
6843;DHT22;3460;52.028;8.916;2023-11-19T13:40:08;12.20;99.90
6843;DHT22;3460;52.028;8.916;2023-11-19T13:42:36;12.20;99.90
6843;DHT22;3460;52.028;8.916;2023-11-19T13:45:07;12.30;99.90
6843;DHT22;3460;52.028;8.916;2023-11-19T13:47:36;12.20;99.90
6843;DHT22;3460;52.028;8.916;2023-11-19T13:50:03;12.20;99.90
6843;DHT22;3460;52.028;8.916;2023-11-19T13:52:33;12.20;99.90
6843;DHT22;3460;52.028;8.916;2023-11-19T13:54:59;12.30;99.90
6843;DHT22;3460;52.028;8.916;2023-11-19T13:57:26;12.40;99.90
6843;DHT22;3460;52.028;8.916;2023-11-19T13:59:56;12.30;99.90
6843;DHT22;3460;52.028;8.916;2023-11-19T14:02:23;12.40;99.90
6843;DHT22;3460;52.028;8.916;2023-11-19T14:04:50;12.40;99.90
6843;DHT22;3460;52.028;8.916;2023-11-19T14:07:16;12.50;99.90
6843;DHT22;3460;52.028;8.916;2023-11-19T14:09:45;12.40;99.90
6843;DHT22;3460;52.028;8.916;2023-11-19T14:12:12;12.30;99.90
6843;DHT22;3460;52.028;8.916;2023-11-19T14:14:39;12.20;99.90
6843;DHT22;3460;52.028;8.916;2023-11-19T14:17:07;12.20;99.90
6843;DHT22;3460;52.028;8.916;2023-11-19T14:19:35;12.30;99.90
6843;DHT22;3460;52.028;8.916;2023-11-19T14:22:03;12.20;99.90
6843;DHT22;3460;52.028;8.916;2023-11-19T14:24:30;12.10;99.90
6843;DHT22;3460;52.028;8.916;2023-11-19T14:26:58;12.10;99.90
6843;DHT22;3460;52.028;8.916;2023-11-19T14:29:25;12.10;99.90
6843;DHT22;3460;52.028;8.916;2023-11-19T14:31:52;12.10;99.90
6843;DHT22;3460;52.028;8.916;2023-11-19T14:34:19;12.00;99.90
6843;DHT22;3460;52.028;8.916;2023-11-19T14:36:46;12.00;99.90
6843;DHT22;3460;52.028;8.916;2023-11-19T14:39:14;12.00;99.90
6843;DHT22;3460;52.028;8.916;2023-11-19T14:41:42;11.90;99.90
6843;DHT22;3460;52.028;8.916;2023-11-19T14:44:11;12.00;99.90
6843;DHT22;3460;52.028;8.916;2023-11-19T14:46:38;12.00;99.90
6843;DHT22;3460;52.028;8.916;2023-11-19T14:49:05;12.00;99.90
6843;DHT22;3460;52.028;8.916;2023-11-19T14:51:35;12.00;99.90
6843;DHT22;3460;52.028;8.916;2023-11-19T14:54:02;12.10;99.90
6843;DHT22;3460;52.028;8.916;2023-11-19T14:56:29;12.10;99.90
6843;DHT22;3460;52.028;8.916;2023-11-19T14:58:56;12.10;99.90
6843;DHT22;3460;52.028;8.916;2023-11-19T15:01:25;12.20;99.90
6843;DHT22;3460;52.028;8.916;2023-11-19T15:03:54;12.10;99.90
6843;DHT22;3460;52.028;8.916;2023-11-19T15:06:23;12.00;99.90
6843;DHT22;3460;52.028;8.916;2023-11-19T15:08:51;12.10;99.90
6843;DHT22;3460;52.028;8.916;2023-11-19T15:11:17;12.00;99.90
6843;DHT22;3460;52.028;8.916;2023-11-19T15:13:44;12.00;99.90
6843;DHT22;3460;52.028;8.916;2023-11-19T15:16:11;12.00;99.90
6843;DHT22;3460;52.028;8.916;2023-11-19T15:18:41;11.90;99.90
6843;DHT22;3460;52.028;8.916;2023-11-19T15:21:08;11.90;99.90
6843;DHT22;3460;52.028;8.916;2023-11-19T15:23:34;11.90;99.90
6843;DHT22;3460;52.028;8.916;2023-11-19T15:26:02;11.90;99.90
6843;DHT22;3460;52.028;8.916;2023-11-19T15:28:29;11.90;99.90
6843;DHT22;3460;52.028;8.916;2023-11-19T15:30:56;11.90;99.90
6843;DHT22;3460;52.028;8.916;2023-11-19T15:33:23;11.90;99.90
6843;DHT22;3460;52.028;8.916;2023-11-19T15:35:52;11.90;99.90
6843;DHT22;3460;52.028;8.916;2023-11-19T15:38:18;11.90;99.90
6843;DHT22;3460;52.028;8.916;2023-11-19T15:40:45;11.90;99.90
6843;DHT22;3460;52.028;8.916;2023-11-19T15:43:12;12.00;99.90
6843;DHT22;3460;52.028;8.916;2023-11-19T15:45:39;11.90;99.90
6843;DHT22;3460;52.028;8.916;2023-11-19T15:48:06;11.80;99.90
6843;DHT22;3460;52.028;8.916;2023-11-19T15:50:32;11.80;99.90
6843;DHT22;3460;52.028;8.916;2023-11-19T15:53:00;11.70;99.90
6843;DHT22;3460;52.028;8.916;2023-11-19T15:55:27;11.70;99.90
6843;DHT22;3460;52.028;8.916;2023-11-19T15:57:54;11.60;99.90
6843;DHT22;3460;52.028;8.916;2023-11-19T16:00:21;11.60;99.90
6843;DHT22;3460;52.028;8.916;2023-11-19T16:02:48;11.60;99.90
6843;DHT22;3460;52.028;8.916;2023-11-19T16:05:16;11.50;99.90
6843;DHT22;3460;52.028;8.916;2023-11-19T16:07:43;11.50;99.90
6843;DHT22;3460;52.028;8.916;2023-11-19T16:10:12;11.60;99.90
6843;DHT22;3460;52.028;8.916;2023-11-19T16:12:39;11.50;99.90
6843;DHT22;3460;52.028;8.916;2023-11-19T16:15:06;11.50;99.90
6843;DHT22;3460;52.028;8.916;2023-11-19T16:17:34;11.50;99.90
6843;DHT22;3460;52.028;8.916;2023-11-19T16:20:02;11.40;99.90
6843;DHT22;3460;52.028;8.916;2023-11-19T16:22:32;11.50;99.90
6843;DHT22;3460;52.028;8.916;2023-11-19T16:24:58;11.50;99.90
6843;DHT22;3460;52.028;8.916;2023-11-19T16:27:27;11.50;99.90
6843;DHT22;3460;52.028;8.916;2023-11-19T16:29:53;11.40;99.90
6843;DHT22;3460;52.028;8.916;2023-11-19T16:32:21;11.40;99.90
6843;DHT22;3460;52.028;8.916;2023-11-19T16:34:48;11.30;99.90
6843;DHT22;3460;52.028;8.916;2023-11-19T16:37:15;11.30;99.90
6843;DHT22;3460;52.028;8.916;2023-11-19T16:39:42;11.20;99.90
6843;DHT22;3460;52.028;8.916;2023-11-19T16:42:09;11.20;99.90
6843;DHT22;3460;52.028;8.916;2023-11-19T16:44:37;11.10;99.90
6843;DHT22;3460;52.028;8.916;2023-11-19T16:47:04;11.00;99.90
6843;DHT22;3460;52.028;8.916;2023-11-19T16:49:32;10.90;99.90
6843;DHT22;3460;52.028;8.916;2023-11-19T16:51:59;10.90;99.90
6843;DHT22;3460;52.028;8.916;2023-11-19T16:54:26;10.90;99.90
6843;DHT22;3460;52.028;8.916;2023-11-19T16:56:53;10.90;99.90
6843;DHT22;3460;52.028;8.916;2023-11-19T16:59:20;10.90;99.90
6843;DHT22;3460;52.028;8.916;2023-11-19T17:01:48;10.90;99.90
6843;DHT22;3460;52.028;8.916;2023-11-19T17:04:15;10.90;99.90
6843;DHT22;3460;52.028;8.916;2023-11-19T17:06:43;10.90;99.90
6843;DHT22;3460;52.028;8.916;2023-11-19T17:09:09;10.80;99.90
6843;DHT22;3460;52.028;8.916;2023-11-19T17:11:38;10.80;99.90
6843;DHT22;3460;52.028;8.916;2023-11-19T17:14:05;10.70;99.90
6843;DHT22;3460;52.028;8.916;2023-11-19T17:16:32;10.80;99.90
6843;DHT22;3460;52.028;8.916;2023-11-19T17:19:00;10.80;99.90
6843;DHT22;3460;52.028;8.916;2023-11-19T17:21:27;10.90;99.90
6843;DHT22;3460;52.028;8.916;2023-11-19T17:23:54;11.00;99.90
6843;DHT22;3460;52.028;8.916;2023-11-19T17:26:21;11.00;99.90
6843;DHT22;3460;52.028;8.916;2023-11-19T17:28:47;11.00;99.90
6843;DHT22;3460;52.028;8.916;2023-11-19T17:31:14;11.00;99.90
6843;DHT22;3460;52.028;8.916;2023-11-19T17:33:42;11.00;99.90
6843;DHT22;3460;52.028;8.916;2023-11-19T17:36:10;11.00;99.90
6843;DHT22;3460;52.028;8.916;2023-11-19T17:38:36;11.00;99.90
6843;DHT22;3460;52.028;8.916;2023-11-19T17:41:04;11.00;99.90
6843;DHT22;3460;52.028;8.916;2023-11-19T17:43:31;11.00;99.90
6843;DHT22;3460;52.028;8.916;2023-11-19T17:46:33;11.00;99.90
6843;DHT22;3460;52.028;8.916;2023-11-19T17:49:31;11.10;99.90
6843;DHT22;3460;52.028;8.916;2023-11-19T17:52:37;11.00;99.90
6843;DHT22;3460;52.028;8.916;2023-11-19T17:55:05;11.00;99.90
6843;DHT22;3460;52.028;8.916;2023-11-19T17:57:33;11.00;99.90
6843;DHT22;3460;52.028;8.916;2023-11-19T18:00:00;11.10;99.90
6843;DHT22;3460;52.028;8.916;2023-11-19T18:02:31;11.10;99.90
6843;DHT22;3460;52.028;8.916;2023-11-19T18:04:57;11.10;99.90
6843;DHT22;3460;52.028;8.916;2023-11-19T18:07:24;11.10;99.90
6843;DHT22;3460;52.028;8.916;2023-11-19T18:09:53;11.20;99.90
6843;DHT22;3460;52.028;8.916;2023-11-19T18:12:19;11.20;99.90
6843;DHT22;3460;52.028;8.916;2023-11-19T18:14:47;11.10;99.90
6843;DHT22;3460;52.028;8.916;2023-11-19T18:17:14;11.10;99.90
6843;DHT22;3460;52.028;8.916;2023-11-19T18:19:41;11.10;99.90
6843;DHT22;3460;52.028;8.916;2023-11-19T18:22:08;11.20;99.90
6843;DHT22;3460;52.028;8.916;2023-11-19T18:24:35;11.20;99.90
6843;DHT22;3460;52.028;8.916;2023-11-19T18:27:04;11.10;99.90
6843;DHT22;3460;52.028;8.916;2023-11-19T18:29:31;11.10;99.90
6843;DHT22;3460;52.028;8.916;2023-11-19T18:31:58;11.10;99.90
6843;DHT22;3460;52.028;8.916;2023-11-19T18:34:25;11.00;99.90
6843;DHT22;3460;52.028;8.916;2023-11-19T18:36:52;11.00;99.90
6843;DHT22;3460;52.028;8.916;2023-11-19T18:39:19;11.00;99.90
6843;DHT22;3460;52.028;8.916;2023-11-19T18:41:46;11.00;99.90
6843;DHT22;3460;52.028;8.916;2023-11-19T18:44:14;10.90;99.90
6843;DHT22;3460;52.028;8.916;2023-11-19T18:46:41;10.90;99.90
6843;DHT22;3460;52.028;8.916;2023-11-19T18:49:08;11.00;99.90
6843;DHT22;3460;52.028;8.916;2023-11-19T18:51:36;10.90;99.90
6843;DHT22;3460;52.028;8.916;2023-11-19T18:54:03;10.80;99.90
6843;DHT22;3460;52.028;8.916;2023-11-19T18:56:30;10.90;99.90
6843;DHT22;3460;52.028;8.916;2023-11-19T18:58:57;10.90;99.90
6843;DHT22;3460;52.028;8.916;2023-11-19T19:01:25;10.80;99.90
6843;DHT22;3460;52.028;8.916;2023-11-19T19:03:55;10.90;99.90
6843;DHT22;3460;52.028;8.916;2023-11-19T19:06:22;10.90;99.90
6843;DHT22;3460;52.028;8.916;2023-11-19T19:08:50;10.90;99.90
6843;DHT22;3460;52.028;8.916;2023-11-19T19:11:17;10.80;99.90
6843;DHT22;3460;52.028;8.916;2023-11-19T19:13:45;10.80;99.90
6843;DHT22;3460;52.028;8.916;2023-11-19T19:16:13;10.80;99.90
6843;DHT22;3460;52.028;8.916;2023-11-19T19:18:41;10.90;99.90
6843;DHT22;3460;52.028;8.916;2023-11-19T19:21:08;10.90;99.90
6843;DHT22;3460;52.028;8.916;2023-11-19T19:23:35;11.00;99.90
6843;DHT22;3460;52.028;8.916;2023-11-19T19:26:02;11.00;99.90
6843;DHT22;3460;52.028;8.916;2023-11-19T19:28:29;10.90;99.90
6843;DHT22;3460;52.028;8.916;2023-11-19T19:30:57;10.90;99.90
6843;DHT22;3460;52.028;8.916;2023-11-19T19:33:25;11.00;99.90
6843;DHT22;3460;52.028;8.916;2023-11-19T19:35:53;10.90;99.90
6843;DHT22;3460;52.028;8.916;2023-11-19T19:38:20;11.00;99.90